createdAt,value
2022-09-30T00:03:49.636Z,91.07
2022-09-30T00:07:51.273Z,90.83
2022-09-30T00:11:53.026Z,90.76
2022-09-30T00:15:54.733Z,91.32
2022-09-30T00:19:56.475Z,91.18
2022-09-30T00:23:58.260Z,91.27
2022-09-30T00:27:59.914Z,91.36
2022-09-30T00:32:01.835Z,91.25
2022-09-30T00:36:04.843Z,90.99
2022-09-30T00:40:07.112Z,91.00
2022-09-30T00:44:39.684Z,91.08
2022-09-30T00:48:41.560Z,91.32
2022-09-30T00:52:46.373Z,91.55
2022-09-30T00:56:52.687Z,91.77
2022-09-30T01:00:54.959Z,91.72
2022-09-30T01:04:57.508Z,91.55
2022-09-30T01:08:59.451Z,91.85
2022-09-30T01:13:01.503Z,92.53
2022-09-30T01:17:16.868Z,92.32
2022-09-30T01:21:49.940Z,92.30
2022-09-30T01:26:26.432Z,92.76
2022-09-30T01:30:59.201Z,92.98
2022-09-30T01:35:25.521Z,92.62
2022-09-30T01:39:57.553Z,92.85
2022-09-30T01:44:12.450Z,92.79
2022-09-30T01:48:29.044Z,92.95
2022-09-30T01:52:44.781Z,92.95
2022-09-30T01:56:52.427Z,92.81
2022-09-30T02:00:59.636Z,93.38
2022-09-30T02:05:05.774Z,93.29
2022-09-30T02:09:16.933Z,93.54
2022-09-30T02:13:28.723Z,93.60
2022-09-30T02:17:41.255Z,93.08
2022-09-30T02:21:45.677Z,93.19
2022-09-30T02:25:52.151Z,93.39
2022-09-30T02:29:59.071Z,93.63
2022-09-30T02:34:07.965Z,93.60
2022-09-30T02:38:16.512Z,93.88
2022-09-30T02:42:28.596Z,93.55
2022-09-30T02:46:35.991Z,93.80
2022-09-30T02:50:43.241Z,93.82
2022-09-30T02:55:02.090Z,93.78
2022-09-30T02:59:03.844Z,93.36
2022-09-30T03:03:32.478Z,93.93
2022-09-30T03:07:34.738Z,94.01
2022-09-30T03:11:37.560Z,94.19
2022-09-30T03:16:01.243Z,93.95
2022-09-30T03:20:20.890Z,94.14
2022-09-30T03:24:47.470Z,93.94
2022-09-30T03:28:59.394Z,94.12
2022-09-30T03:33:25.377Z,94.53
2022-09-30T03:37:46.262Z,94.27
2022-09-30T03:42:16.437Z,93.97
2022-09-30T03:46:27.160Z,93.91
2022-09-30T03:50:31.407Z,94.11
2022-09-30T03:54:33.486Z,94.28
2022-09-30T03:58:42.473Z,94.43
2022-09-30T04:02:44.159Z,94.30
2022-09-30T04:06:46.534Z,94.31
2022-09-30T04:10:48.202Z,94.62
2022-09-30T04:14:49.874Z,94.49
2022-09-30T04:18:51.513Z,94.81
2022-09-30T04:22:53.142Z,94.58
2022-09-30T04:26:54.854Z,94.50
2022-09-30T04:30:59.858Z,94.45
2022-09-30T04:35:01.884Z,94.58
2022-09-30T04:39:04.190Z,94.96
2022-09-30T04:43:06.349Z,94.82
2022-09-30T04:47:07.976Z,95.11
2022-09-30T04:51:09.821Z,95.18
2022-09-30T04:55:11.729Z,95.31
2022-09-30T04:59:13.414Z,95.13
2022-09-30T05:03:15.139Z,95.10
2022-09-30T05:07:16.972Z,95.48
2022-09-30T05:11:20.781Z,95.22
2022-09-30T05:15:22.506Z,95.23
2022-09-30T05:19:24.431Z,95.09
2022-09-30T05:23:28.316Z,95.44
2022-09-30T05:27:30.213Z,95.59
2022-09-30T05:31:31.997Z,95.63
2022-09-30T05:35:34.570Z,95.20
2022-09-30T05:39:36.935Z,95.06
2022-09-30T05:43:47.960Z,95.16
2022-09-30T05:47:53.711Z,95.14
2022-09-30T05:51:55.804Z,94.89
2022-09-30T05:55:58.106Z,94.87
2022-09-30T05:59:59.834Z,94.80
2022-09-30T06:04:01.786Z,94.39
2022-09-30T06:08:04.457Z,94.26
2022-09-30T06:12:06.999Z,93.85
2022-09-30T06:16:10.645Z,94.08
2022-09-30T06:20:12.581Z,93.53
2022-09-30T06:24:14.810Z,93.72
2022-09-30T06:28:16.963Z,93.43
2022-09-30T06:32:18.659Z,93.54
2022-09-30T06:36:20.324Z,93.24
2022-09-30T06:40:22.105Z,93.26
2022-09-30T06:44:23.910Z,92.78
2022-09-30T06:48:36.902Z,93.00
2022-09-30T06:52:40.341Z,92.88
2022-09-30T06:56:42.590Z,93.03
2022-09-30T07:00:44.326Z,93.02
2022-09-30T07:04:46.393Z,92.72
2022-09-30T07:08:48.126Z,93.15
2022-09-30T07:12:51.295Z,92.88
2022-09-30T07:16:53.587Z,93.28
2022-09-30T07:20:56.645Z,93.08
2022-09-30T07:25:00.144Z,93.16
2022-09-30T07:29:02.558Z,93.02
2022-09-30T07:33:04.319Z,93.03
2022-09-30T07:37:05.988Z,92.88
2022-09-30T07:41:17.373Z,92.93
2022-09-30T07:45:19.535Z,92.05
2022-09-30T07:49:25.799Z,91.88
2022-09-30T07:53:27.548Z,91.75
2022-09-30T07:57:29.175Z,90.79
2022-09-30T08:01:35.385Z,90.61
2022-09-30T08:05:41.468Z,90.15
2022-09-30T08:09:43.668Z,89.70
2022-09-30T08:13:45.543Z,89.95
2022-09-30T08:17:47.209Z,89.52
2022-09-30T08:21:49.799Z,89.43
2022-09-30T08:25:51.553Z,89.04
2022-09-30T08:29:56.630Z,89.05
2022-09-30T08:33:59.864Z,88.82
2022-09-30T08:38:01.560Z,88.44
2022-09-30T08:42:32.252Z,88.45
2022-09-30T08:46:40.359Z,87.99
2022-09-30T08:50:49.808Z,87.47
2022-09-30T08:54:57.097Z,87.85
2022-09-30T08:59:14.370Z,87.41
2022-09-30T09:03:20.480Z,87.74
2022-09-30T09:07:33.014Z,87.77
2022-09-30T09:12:06.054Z,87.07
2022-09-30T09:16:31.782Z,87.41
2022-09-30T09:20:41.298Z,87.18
2022-09-30T09:24:48.454Z,86.55
2022-09-30T09:29:22.688Z,85.95
2022-09-30T09:33:39.777Z,85.34
2022-09-30T09:38:19.707Z,85.23
2022-09-30T09:42:42.245Z,83.90
2022-09-30T09:46:51.990Z,82.97
2022-09-30T09:51:28.804Z,81.50
2022-09-30T09:55:30.480Z,81.98
2022-09-30T09:59:32.676Z,81.89
2022-09-30T10:03:34.955Z,81.66
2022-09-30T10:07:36.721Z,80.82
2022-09-30T10:11:38.487Z,80.93
2022-09-30T10:15:43.228Z,80.11
2022-09-30T10:19:54.974Z,79.65
2022-09-30T10:24:00.406Z,78.61
2022-09-30T10:28:19.374Z,78.91
2022-09-30T10:32:22.843Z,78.60
2022-09-30T10:36:32.483Z,78.65
2022-09-30T10:40:34.317Z,78.24
2022-09-30T10:44:46.732Z,77.82
2022-09-30T10:48:51.136Z,77.58
2022-09-30T10:52:57.163Z,76.93
2022-09-30T10:57:04.016Z,76.53
2022-09-30T11:01:26.184Z,76.57
2022-09-30T11:05:31.318Z,76.55
2022-09-30T11:09:37.993Z,76.72
2022-09-30T11:13:57.039Z,76.36
2022-09-30T11:18:46.476Z,75.84
2022-09-30T11:23:46.796Z,74.20
2022-09-30T11:27:57.188Z,75.01
2022-09-30T11:32:12.125Z,74.22
2022-09-30T11:36:46.240Z,73.49
2022-09-30T11:41:09.899Z,73.34
2022-09-30T11:45:24.934Z,73.69
2022-09-30T11:50:19.174Z,73.07
2022-09-30T11:54:26.737Z,73.45
2022-09-30T11:58:42.205Z,73.23
2022-09-30T12:02:56.900Z,72.69
2022-09-30T12:07:11.681Z,72.28
2022-09-30T12:11:23.502Z,72.40
2022-09-30T12:15:27.011Z,72.11
2022-09-30T12:19:38.514Z,72.06
2022-09-30T12:23:59.318Z,72.41
2022-09-30T12:28:42.118Z,72.57
2022-09-30T12:33:05.681Z,72.39
2022-09-30T12:37:28.528Z,72.50
2022-09-30T12:41:48.882Z,72.41
2022-09-30T12:46:21.794Z,70.70
2022-09-30T12:50:29.640Z,70.78
2022-09-30T12:54:35.191Z,71.12
2022-09-30T12:58:51.561Z,70.03
2022-09-30T13:03:06.715Z,69.65
2022-09-30T13:07:13.790Z,68.40
2022-09-30T13:11:37.273Z,68.78
2022-09-30T13:15:44.292Z,68.59
2022-09-30T13:19:51.965Z,68.73
2022-09-30T13:23:55.819Z,69.03
2022-09-30T13:28:29.771Z,68.53
2022-09-30T13:32:39.658Z,68.81
2022-09-30T13:36:44.432Z,66.72
2022-09-30T13:41:07.253Z,66.60
2022-09-30T13:45:25.978Z,63.22
2022-09-30T13:49:33.614Z,62.86
2022-09-30T13:53:40.295Z,61.84
2022-09-30T13:58:04.839Z,61.14
2022-09-30T14:02:53.678Z,58.84
2022-09-30T14:07:11.433Z,57.52
2022-09-30T14:11:41.152Z,58.00
2022-09-30T14:16:06.981Z,57.83
2022-09-30T14:20:09.465Z,58.57
2022-09-30T14:24:16.262Z,58.07
2022-09-30T14:28:29.870Z,57.24
2022-09-30T14:32:54.836Z,57.17
2022-09-30T14:36:56.586Z,57.35
2022-09-30T14:41:06.404Z,58.03
2022-09-30T14:45:09.542Z,58.04
2022-09-30T14:49:16.776Z,56.77
2022-09-30T14:53:27.067Z,57.69
2022-09-30T14:57:28.697Z,57.89
2022-09-30T15:01:35.408Z,58.80
2022-09-30T15:05:37.203Z,59.55
2022-09-30T15:09:42.272Z,59.61
2022-09-30T15:13:44.351Z,59.99
2022-09-30T15:17:46.027Z,60.04
2022-09-30T15:21:49.938Z,60.28
2022-09-30T15:25:52.895Z,60.69
2022-09-30T15:29:55.985Z,60.84
2022-09-30T15:34:03.831Z,61.36
2022-09-30T15:38:10.403Z,61.92
2022-09-30T15:42:15.060Z,62.41
2022-09-30T15:46:27.262Z,63.11
2022-09-30T15:50:46.134Z,63.05
2022-09-30T15:54:47.984Z,62.89
2022-09-30T15:58:56.814Z,63.33
2022-09-30T16:03:09.636Z,63.53
2022-09-30T16:07:14.533Z,63.70
2022-09-30T16:11:40.955Z,64.40
2022-09-30T16:15:42.761Z,64.72
2022-09-30T16:19:51.655Z,65.19
2022-09-30T16:23:54.658Z,65.70
2022-09-30T16:28:02.511Z,65.68
2022-09-30T16:32:04.927Z,66.23
2022-09-30T16:36:11.530Z,66.85
2022-09-30T16:40:23.121Z,67.09
2022-09-30T16:44:24.784Z,67.24
2022-09-30T16:48:27.277Z,67.44
2022-09-30T16:52:28.971Z,67.44
2022-09-30T16:56:31.566Z,67.84
2022-09-30T17:00:34.080Z,68.28
2022-09-30T17:04:38.739Z,68.13
2022-09-30T17:08:41.524Z,68.40
2022-09-30T17:12:43.158Z,68.34
2022-09-30T17:16:46.667Z,68.78
2022-09-30T17:20:53.162Z,68.81
2022-09-30T17:24:55.051Z,68.90
2022-09-30T17:29:08.797Z,68.90
2022-09-30T17:33:19.230Z,68.93
2022-09-30T17:37:21.196Z,69.04
2022-09-30T17:41:41.388Z,69.18
2022-09-30T17:45:46.285Z,69.52
2022-09-30T17:49:48.032Z,69.51
2022-09-30T17:53:49.816Z,69.38
2022-09-30T17:57:53.736Z,69.11
2022-09-30T18:01:56.595Z,68.78
2022-09-30T18:05:58.932Z,69.02
2022-09-30T18:10:00.669Z,68.79
2022-09-30T18:14:02.545Z,68.56
2022-09-30T18:18:04.285Z,68.48
2022-09-30T18:22:06.108Z,68.71
2022-09-30T18:26:07.753Z,68.26
2022-09-30T18:30:11.622Z,67.73
2022-09-30T18:34:13.641Z,67.75
2022-09-30T18:38:15.300Z,67.49
2022-09-30T18:42:20.150Z,67.11
2022-09-30T18:46:22.060Z,66.71
2022-09-30T18:50:24.970Z,66.97
2022-09-30T18:54:26.684Z,67.07
2022-09-30T18:58:30.405Z,66.61
2022-09-30T19:02:32.505Z,66.25
2022-09-30T19:06:34.920Z,66.37
2022-09-30T19:10:41.493Z,66.00
2022-09-30T19:14:44.595Z,66.38
2022-09-30T19:18:46.860Z,66.22
2022-09-30T19:22:51.886Z,66.11
2022-09-30T19:26:53.626Z,66.56
2022-09-30T19:30:55.835Z,66.36
2022-09-30T19:35:05.346Z,66.09
2022-09-30T19:39:12.123Z,66.38
2022-09-30T19:43:18.865Z,66.21
2022-09-30T19:47:20.514Z,65.79
2022-09-30T19:51:22.356Z,65.77
2022-09-30T19:55:24.363Z,65.46
2022-09-30T19:59:26.039Z,65.44
2022-09-30T20:03:30.697Z,65.65
2022-09-30T20:07:32.580Z,65.42
2022-09-30T20:11:37.054Z,65.33
2022-09-30T20:15:50.910Z,65.37
2022-09-30T20:20:11.038Z,64.56
2022-09-30T20:24:15.660Z,64.36
2022-09-30T20:28:19.015Z,65.07
2022-09-30T20:32:20.743Z,66.21
2022-09-30T20:36:23.100Z,67.16
2022-09-30T20:40:24.827Z,67.69
2022-09-30T20:44:26.480Z,68.30
2022-09-30T20:48:33.628Z,69.37
2022-09-30T20:52:35.512Z,70.35
2022-09-30T20:57:05.385Z,71.00
2022-09-30T21:01:07.256Z,71.56
2022-09-30T21:05:09.356Z,72.82
2022-09-30T21:09:12.363Z,73.03
2022-09-30T21:13:15.040Z,74.45
2022-09-30T21:17:16.958Z,75.08
2022-09-30T21:21:21.364Z,75.63
2022-09-30T21:25:23.069Z,76.29
2022-09-30T21:29:24.796Z,77.86
2022-09-30T21:33:26.698Z,79.05
2022-09-30T21:37:28.358Z,81.99
2022-09-30T21:41:32.825Z,82.72
2022-09-30T21:45:34.796Z,84.72
2022-09-30T21:49:38.527Z,86.54
2022-09-30T21:53:40.843Z,87.87
2022-09-30T21:57:43.424Z,87.47
2022-09-30T22:01:46.421Z,88.29
2022-09-30T22:05:52.567Z,88.62
2022-09-30T22:09:54.308Z,90.15
2022-09-30T22:13:58.021Z,89.56
2022-09-30T22:17:59.719Z,90.04
2022-09-30T22:22:01.864Z,90.79
2022-09-30T22:26:11.437Z,92.16
2022-09-30T22:30:13.101Z,92.26
2022-09-30T22:34:33.810Z,93.13
2022-09-30T22:38:35.465Z,93.29
2022-09-30T22:42:37.328Z,94.56
2022-09-30T22:46:39.554Z,95.41
2022-09-30T22:50:41.260Z,95.25
2022-09-30T22:54:42.983Z,95.25
2022-09-30T22:58:46.862Z,94.46
2022-09-30T23:02:52.971Z,95.24
2022-09-30T23:06:58.162Z,95.14
2022-09-30T23:11:00.445Z,95.80
2022-09-30T23:15:02.240Z,96.43
2022-09-30T23:19:04.382Z,96.98
2022-09-30T23:23:06.040Z,97.04
2022-09-30T23:27:07.944Z,97.22
2022-09-30T23:31:18.927Z,97.39
2022-09-30T23:35:20.600Z,97.50
2022-09-30T23:39:22.352Z,97.24
2022-09-30T23:43:24.019Z,97.51
2022-09-30T23:47:25.743Z,98.34
2022-09-30T23:51:27.477Z,98.10
2022-09-30T23:55:29.807Z,98.67
2022-09-30T23:59:32.242Z,98.87
